Topaz Ranch Estates, Nevada
Current Conditions -  °F | °C
As of 8:52 AM on Thursday 18 Dec 2014 (Local Time) from KBAN Reporting Station
Clear Clear  
Wind Chill: 23°   Ceiling: Unl
Heat Index: 23°   Visibility: NA
Dew Point: 18°   Wind: 0mph
Humidity: 81%   Direction: NA
Pressure: 30.1"   Gusts: NA
Location:  38.7596°N, 119.34°W
Report Text: KBAN 181652Z AUTO 00000KT CLR M05/M08 A3010 RMK AO2 SLP212 T10501078 FZRANO $
Loading
Personal Weather Stations






























Interactive Weather Map New forecast layout! Learn more

10-Day Weather Forecast

Advertisements
Track Severe Weather on mobile